Terminal Aerodrome Forecast
Issued by NWS

Home | Current Version | Previous Version | Text Only | Print | Product List | Glossary On
Versions: 1 2 3 4 5 6 7 8 9 10 11 12 13
000
FTUS45 KABQ 312326
TAFFMN
TAF
KFMN 312326Z 0100/0124 13008KT P6SM VCSH SCT060 BKN090
     FM010200 09006KT P6SM BKN090
     FM010700 08006KT P6SM SCT040 BKN100
     FM012200 18006KT P6SM VCTS SCT060CB BKN100=

USA.gov is the U.S. government's official web portal to all federal, state and local government web resources and services.